createdAt,value
2022-09-27T00:02:25.438Z,31.42
2022-09-27T00:04:55.820Z,40.47
2022-09-27T00:07:24.368Z,37.97
2022-09-27T00:09:52.972Z,32.42
2022-09-27T00:12:21.488Z,34.95
2022-09-27T00:14:52.278Z,36.22
2022-09-27T00:17:23.024Z,40.83
2022-09-27T00:19:52.529Z,35.28
2022-09-27T00:22:24.436Z,39.17
2022-09-27T00:24:53.054Z,37.60
2022-09-27T00:27:22.511Z,35.15
2022-09-27T00:29:53.394Z,43.08
2022-09-27T00:32:23.362Z,39.35
2022-09-27T00:34:54.315Z,42.25
2022-09-27T00:37:26.160Z,38.58
2022-09-27T00:39:55.840Z,37.42
2022-09-27T00:42:25.061Z,38.38
2022-09-27T00:45:06.571Z,34.20
2022-09-27T00:47:42.592Z,40.63
2022-09-27T00:50:25.934Z,34.17
2022-09-27T00:53:06.048Z,44.17
2022-09-27T00:55:38.405Z,47.80
2022-09-27T00:58:10.380Z,38.85
2022-09-27T01:00:44.017Z,47.97
2022-09-27T01:03:18.246Z,39.50
2022-09-27T01:05:48.255Z,41.05
2022-09-27T01:08:20.152Z,47.13
2022-09-27T01:10:59.989Z,48.78
2022-09-27T01:13:37.076Z,34.65
2022-09-27T01:16:15.150Z,44.67
2022-09-27T01:18:59.477Z,43.90
2022-09-27T01:21:46.622Z,41.63
2022-09-27T01:24:58.739Z,38.88
2022-09-27T01:28:06.882Z,40.88
2022-09-27T01:30:44.522Z,34.13
2022-09-27T01:33:43.169Z,43.83
2022-09-27T01:36:22.968Z,37.22
2022-09-27T01:39:08.376Z,37.55
2022-09-27T01:41:45.379Z,44.10
2022-09-27T01:44:19.195Z,43.72
2022-09-27T01:46:53.617Z,36.65
2022-09-27T01:49:29.979Z,41.00
2022-09-27T01:52:02.415Z,35.42
2022-09-27T01:54:37.351Z,49.22
2022-09-27T01:57:08.646Z,44.42
2022-09-27T01:59:45.723Z,41.92
2022-09-27T02:02:19.222Z,48.80
2022-09-27T02:04:49.621Z,42.70
2022-09-27T02:07:24.194Z,42.15
2022-09-27T02:09:58.303Z,44.97
2022-09-27T02:12:31.288Z,42.15
2022-09-27T02:15:04.420Z,36.03
2022-09-27T02:17:43.586Z,49.30
2022-09-27T02:20:20.578Z,46.50
2022-09-27T02:22:56.599Z,40.50
2022-09-27T02:25:30.305Z,44.40
2022-09-27T02:28:08.132Z,42.90
2022-09-27T02:30:36.811Z,45.15
2022-09-27T02:33:08.020Z,48.80
2022-09-27T02:35:38.258Z,48.17
2022-09-27T02:38:09.413Z,51.10
2022-09-27T02:40:46.041Z,49.47
2022-09-27T02:43:18.246Z,53.67
2022-09-27T02:46:08.036Z,50.15
2022-09-27T02:48:50.997Z,39.67
2022-09-27T02:51:35.777Z,54.35
2022-09-27T02:54:16.542Z,52.45
2022-09-27T02:56:55.327Z,41.25
2022-09-27T02:59:34.663Z,39.42
2022-09-27T03:02:13.761Z,48.58
2022-09-27T03:04:55.497Z,43.22
2022-09-27T03:07:25.213Z,47.45
2022-09-27T03:09:59.946Z,47.08
2022-09-27T03:12:29.846Z,43.10
2022-09-27T03:15:00.925Z,42.20
2022-09-27T03:17:29.665Z,44.72
2022-09-27T03:19:59.592Z,47.55
2022-09-27T03:22:29.437Z,43.08
2022-09-27T03:24:58.997Z,45.83
2022-09-27T03:27:27.547Z,46.30
2022-09-27T03:29:58.824Z,38.58
2022-09-27T03:32:34.961Z,43.45
2022-09-27T03:35:07.179Z,40.60
2022-09-27T03:37:36.065Z,46.55
2022-09-27T03:40:04.844Z,48.35
2022-09-27T03:42:33.276Z,35.83
2022-09-27T03:45:03.020Z,37.70
2022-09-27T03:47:31.579Z,38.75
2022-09-27T03:50:00.124Z,39.38
2022-09-27T03:52:32.843Z,39.97
2022-09-27T03:55:03.840Z,46.75
2022-09-27T03:57:37.230Z,48.47
2022-09-27T04:00:06.055Z,38.88
2022-09-27T04:02:34.795Z,40.95
2022-09-27T04:05:03.513Z,45.03
2022-09-27T04:07:33.739Z,49.63
2022-09-27T04:10:10.788Z,36.83
2022-09-27T04:12:42.163Z,47.22
2022-09-27T04:15:12.881Z,46.20
2022-09-27T04:17:44.147Z,40.60
2022-09-27T04:20:13.221Z,42.25
2022-09-27T04:22:45.917Z,51.00
2022-09-27T04:25:19.198Z,43.03
2022-09-27T04:27:48.905Z,43.25
2022-09-27T04:30:18.791Z,43.55
2022-09-27T04:32:50.333Z,44.30
2022-09-27T04:35:36.369Z,51.13
2022-09-27T04:38:07.872Z,45.03
2022-09-27T04:40:38.012Z,45.35
2022-09-27T04:43:06.625Z,41.60
2022-09-27T04:45:35.674Z,42.92
2022-09-27T04:48:03.986Z,42.97
2022-09-27T04:50:35.945Z,41.63
2022-09-27T04:53:07.268Z,43.67
2022-09-27T04:55:36.765Z,35.70
2022-09-27T04:58:05.878Z,38.15
2022-09-27T05:00:35.476Z,48.65
2022-09-27T05:03:06.299Z,36.40
2022-09-27T05:05:34.609Z,42.58
2022-09-27T05:08:03.512Z,40.42
2022-09-27T05:10:33.331Z,46.63
2022-09-27T05:13:01.689Z,49.53
2022-09-27T05:15:30.561Z,44.78
2022-09-27T05:17:59.994Z,48.42
2022-09-27T05:20:30.043Z,43.60
2022-09-27T05:22:59.831Z,39.30
2022-09-27T05:25:28.564Z,43.13
2022-09-27T05:27:59.241Z,44.28
2022-09-27T05:30:30.857Z,47.92
2022-09-27T05:32:59.558Z,40.78
2022-09-27T05:35:28.267Z,58.17
2022-09-27T05:38:00.288Z,43.75
2022-09-27T05:40:40.964Z,41.50
2022-09-27T05:43:12.017Z,40.63
2022-09-27T05:45:44.400Z,45.95
2022-09-27T05:48:14.860Z,40.88
2022-09-27T05:50:43.485Z,45.85
2022-09-27T05:53:13.704Z,41.85
2022-09-27T05:55:50.099Z,38.28
2022-09-27T05:58:21.165Z,50.72
2022-09-27T06:00:51.684Z,39.50
2022-09-27T06:03:21.260Z,42.67
2022-09-27T06:05:57.025Z,43.55
2022-09-27T06:08:25.486Z,51.55
2022-09-27T06:11:03.699Z,38.22
2022-09-27T06:13:36.551Z,47.55
2022-09-27T06:16:05.884Z,50.80
2022-09-27T06:18:36.912Z,49.63
2022-09-27T06:21:06.986Z,48.08
2022-09-27T06:23:37.664Z,51.05
2022-09-27T06:26:08.517Z,39.42
2022-09-27T06:28:39.118Z,34.83
2022-09-27T06:31:11.994Z,32.88
2022-09-27T06:33:49.513Z,52.05
2022-09-27T06:36:18.515Z,50.17
2022-09-27T06:38:48.547Z,49.15
2022-09-27T06:41:18.119Z,41.05
2022-09-27T06:43:50.050Z,47.00
2022-09-27T06:46:18.453Z,46.70
2022-09-27T06:48:48.528Z,51.80
2022-09-27T06:51:17.198Z,47.53
2022-09-27T06:53:45.738Z,42.80
2022-09-27T06:56:15.306Z,54.05
2022-09-27T06:59:00.900Z,39.88
2022-09-27T07:01:34.094Z,46.72
2022-09-27T07:04:07.842Z,43.15
2022-09-27T07:06:38.903Z,42.25
2022-09-27T07:09:07.533Z,43.85
2022-09-27T07:11:37.965Z,59.33
2022-09-27T07:14:11.059Z,53.95
2022-09-27T07:16:45.317Z,39.78
2022-09-27T07:19:21.438Z,49.38
2022-09-27T07:21:52.940Z,43.30
2022-09-27T07:24:21.436Z,47.05
2022-09-27T07:26:52.171Z,51.13
2022-09-27T07:29:21.737Z,42.95
2022-09-27T07:31:52.737Z,42.83
2022-09-27T07:34:21.188Z,38.15
2022-09-27T07:36:55.359Z,41.83
2022-09-27T07:39:24.588Z,50.83
2022-09-27T07:41:53.300Z,48.13
2022-09-27T07:44:21.977Z,43.35
2022-09-27T07:46:52.041Z,41.95
2022-09-27T07:49:22.089Z,48.25
2022-09-27T07:51:51.614Z,46.00
2022-09-27T07:54:21.329Z,42.05
2022-09-27T07:56:52.170Z,51.25
2022-09-27T07:59:20.914Z,49.97
2022-09-27T08:02:07.349Z,42.63
2022-09-27T08:04:35.835Z,46.10
2022-09-27T08:07:04.260Z,43.22
2022-09-27T08:09:33.057Z,47.88
2022-09-27T08:12:01.658Z,43.50
2022-09-27T08:14:30.385Z,52.80
2022-09-27T08:16:59.185Z,51.70
2022-09-27T08:19:36.600Z,45.28
2022-09-27T08:22:05.361Z,50.05
2022-09-27T08:24:33.811Z,42.00
2022-09-27T08:27:07.026Z,46.85
2022-09-27T08:29:42.131Z,44.78
2022-09-27T08:32:12.654Z,38.33
2022-09-27T08:34:44.121Z,49.53
2022-09-27T08:37:14.588Z,50.40
2022-09-27T08:39:47.969Z,52.95
2022-09-27T08:42:29.505Z,43.75
2022-09-27T08:45:05.830Z,39.72
2022-09-27T08:47:40.525Z,34.50
2022-09-27T08:50:28.119Z,45.78
2022-09-27T08:53:01.880Z,41.42
2022-09-27T08:55:37.924Z,45.95
2022-09-27T08:58:15.004Z,40.50
2022-09-27T09:00:43.671Z,39.00
2022-09-27T09:03:23.138Z,47.22
2022-09-27T09:06:08.649Z,47.35
2022-09-27T09:08:51.081Z,34.45
2022-09-27T09:11:51.333Z,45.72
2022-09-27T09:14:56.568Z,40.20
2022-09-27T09:17:37.876Z,37.53
2022-09-27T09:20:22.077Z,39.85
2022-09-27T09:23:06.799Z,43.25
2022-09-27T09:25:44.512Z,48.20
2022-09-27T09:28:30.433Z,40.83
2022-09-27T09:31:07.579Z,38.72
2022-09-27T09:33:40.660Z,42.28
2022-09-27T09:36:20.340Z,43.47
2022-09-27T09:38:57.685Z,47.90
2022-09-27T09:41:32.165Z,40.65
2022-09-27T09:44:06.301Z,44.03
2022-09-27T09:46:45.384Z,50.45
2022-09-27T09:49:20.253Z,46.08
2022-09-27T09:51:52.801Z,34.50
2022-09-27T09:54:28.872Z,43.90
2022-09-27T09:57:05.152Z,41.03
2022-09-27T09:59:40.315Z,42.25
2022-09-27T10:02:24.735Z,42.83
2022-09-27T10:04:53.376Z,35.10
2022-09-27T10:07:25.658Z,48.45
2022-09-27T10:10:01.104Z,40.70
2022-09-27T10:12:30.858Z,37.70
2022-09-27T10:15:02.982Z,43.88
2022-09-27T10:17:40.641Z,45.40
2022-09-27T10:20:17.119Z,42.35
2022-09-27T10:22:54.806Z,40.15
2022-09-27T10:25:25.819Z,37.38
2022-09-27T10:27:57.177Z,37.60
2022-09-27T10:30:29.557Z,41.10
2022-09-27T10:33:00.941Z,41.25
2022-09-27T10:35:38.199Z,43.50
2022-09-27T10:38:27.306Z,41.92
2022-09-27T10:41:00.129Z,39.55
2022-09-27T10:43:33.782Z,36.92
2022-09-27T10:46:17.743Z,43.13
2022-09-27T10:48:46.400Z,37.45
2022-09-27T10:51:28.640Z,38.50
2022-09-27T10:54:00.824Z,39.20
2022-09-27T10:56:33.388Z,42.67
2022-09-27T10:59:04.297Z,31.08
2022-09-27T11:01:42.611Z,41.33
2022-09-27T11:04:21.609Z,41.85
2022-09-27T11:06:50.723Z,41.17
2022-09-27T11:09:24.479Z,37.60
2022-09-27T11:12:10.433Z,32.35
2022-09-27T11:14:41.674Z,30.30
2022-09-27T11:17:22.269Z,32.88
2022-09-27T11:20:29.116Z,32.60
2022-09-27T11:23:30.009Z,38.22
2022-09-27T11:26:11.447Z,37.80
2022-09-27T11:28:54.090Z,37.65
2022-09-27T11:31:36.682Z,23.17
2022-09-27T11:34:37.831Z,30.35
2022-09-27T11:37:18.458Z,33.80
2022-09-27T11:40:03.006Z,23.73
2022-09-27T11:43:00.055Z,34.83
2022-09-27T11:46:14.219Z,33.90
2022-09-27T11:48:56.553Z,33.92
2022-09-27T11:51:37.593Z,32.72
2022-09-27T11:54:31.178Z,27.58
2022-09-27T11:57:05.797Z,28.48
2022-09-27T12:00:09.174Z,30.13
2022-09-27T12:02:58.601Z,29.00
2022-09-27T12:05:38.056Z,29.48
2022-09-27T12:08:22.885Z,33.40
2022-09-27T12:10:56.423Z,29.17
2022-09-27T12:13:36.097Z,28.65
2022-09-27T12:16:05.966Z,28.40
2022-09-27T12:18:41.565Z,26.45
2022-09-27T12:21:13.288Z,27.17
2022-09-27T12:23:45.962Z,21.38
2022-09-27T12:26:21.750Z,21.50
2022-09-27T12:28:54.359Z,33.08
2022-09-27T12:31:41.186Z,28.98
2022-09-27T12:34:20.547Z,28.42
2022-09-27T12:36:58.186Z,31.38
2022-09-27T12:39:35.161Z,30.70
2022-09-27T12:45:53.692Z,26.70
2022-09-27T12:48:41.100Z,23.75
2022-09-27T12:51:46.510Z,27.77
2022-09-27T12:54:40.654Z,28.25
2022-09-27T12:57:39.751Z,34.83
2022-09-27T13:00:34.443Z,28.77
2022-09-27T13:04:08.234Z,26.35
2022-09-27T13:10:08.473Z,31.95
2022-09-27T13:12:47.791Z,32.65
2022-09-27T13:15:23.113Z,28.58
2022-09-27T13:17:57.073Z,31.80
2022-09-27T13:20:51.357Z,30.23
2022-09-27T13:24:02.518Z,22.40
2022-09-27T13:26:52.346Z,25.02
2022-09-27T13:29:37.280Z,28.27
2022-09-27T13:32:20.948Z,24.90
2022-09-27T13:34:55.055Z,30.38
2022-09-27T13:37:54.860Z,24.67
2022-09-27T13:40:50.242Z,23.52
2022-09-27T13:43:49.269Z,29.42
2022-09-27T13:46:22.122Z,22.13
2022-09-27T13:48:58.330Z,27.30
2022-09-27T13:51:38.781Z,22.30
2022-09-27T13:54:12.809Z,27.05
2022-09-27T13:56:58.551Z,24.15
2022-09-27T13:59:34.914Z,25.63
2022-09-27T14:02:29.375Z,22.13
2022-09-27T14:05:04.822Z,29.60
2022-09-27T14:07:53.718Z,24.98
2022-09-27T14:10:24.607Z,23.42
2022-09-27T14:13:04.897Z,21.02
2022-09-27T14:15:34.517Z,30.63
2022-09-27T14:18:26.696Z,27.08
2022-09-27T14:20:55.891Z,27.42
2022-09-27T14:23:58.274Z,17.30
2022-09-27T14:26:33.316Z,22.60
2022-09-27T14:29:31.602Z,28.13
2022-09-27T14:32:20.547Z,22.58
2022-09-27T14:35:07.974Z,21.70
2022-09-27T14:37:38.904Z,20.65
2022-09-27T14:40:24.198Z,26.33
2022-09-27T14:43:05.517Z,29.23
2022-09-27T14:46:04.598Z,23.40
2022-09-27T14:48:36.918Z,23.52
2022-09-27T14:51:20.097Z,20.50
2022-09-27T14:53:50.565Z,20.58
2022-09-27T14:56:23.078Z,20.98
2022-09-27T14:58:57.235Z,20.85
2022-09-27T15:01:27.889Z,19.65
2022-09-27T15:04:08.675Z,24.50
2022-09-27T15:06:55.921Z,23.65
2022-09-27T15:09:32.355Z,21.65
2022-09-27T15:12:09.291Z,23.50
2022-09-27T15:14:41.525Z,20.67
2022-09-27T15:17:21.355Z,28.58
2022-09-27T15:20:25.225Z,23.38
2022-09-27T15:22:53.836Z,27.25
2022-09-27T15:25:34.571Z,24.98
2022-09-27T15:28:06.198Z,18.55
2022-09-27T15:30:39.983Z,20.88
2022-09-27T15:33:22.391Z,26.05
2022-09-27T15:35:53.026Z,24.15
2022-09-27T15:38:31.589Z,21.50
2022-09-27T15:41:09.677Z,22.73
2022-09-27T15:43:41.802Z,23.92
2022-09-27T15:46:39.093Z,22.42
2022-09-27T15:49:34.856Z,22.02
2022-09-27T15:52:05.490Z,22.65
2022-09-27T15:54:35.942Z,26.80
2022-09-27T15:57:06.871Z,27.45
2022-09-27T15:59:37.172Z,22.95
2022-09-27T16:02:19.721Z,22.27
2022-09-27T16:04:49.689Z,19.40
2022-09-27T16:07:17.983Z,23.08
2022-09-27T16:09:49.639Z,28.05
2022-09-27T16:12:18.266Z,19.30
2022-09-27T16:14:46.787Z,21.80
2022-09-27T16:17:16.150Z,21.13
2022-09-27T16:19:44.795Z,25.52
2022-09-27T16:22:14.963Z,19.95
2022-09-27T16:24:43.276Z,24.40
2022-09-27T16:27:12.019Z,23.13
2022-09-27T16:29:44.362Z,22.10
2022-09-27T16:32:12.955Z,21.02
2022-09-27T16:34:41.573Z,26.27
2022-09-27T16:37:10.508Z,16.85
2022-09-27T16:39:40.975Z,19.13
2022-09-27T16:42:09.907Z,26.33
2022-09-27T16:44:38.294Z,21.15
2022-09-27T16:47:07.357Z,21.20
2022-09-27T16:49:53.706Z,19.17
2022-09-27T16:52:22.003Z,24.65
2022-09-27T16:54:52.132Z,28.08
2022-09-27T16:57:20.681Z,26.17
2022-09-27T16:59:50.048Z,20.52
2022-09-27T17:02:19.967Z,21.80
2022-09-27T17:04:48.566Z,25.25
2022-09-27T17:07:17.113Z,23.55
2022-09-27T17:09:45.763Z,24.13
2022-09-27T17:12:16.711Z,23.13
2022-09-27T17:14:45.538Z,18.63
2022-09-27T17:17:14.087Z,26.33
2022-09-27T17:19:42.968Z,25.63
2022-09-27T17:22:11.913Z,31.20
2022-09-27T17:24:40.494Z,20.02
2022-09-27T17:27:09.494Z,17.00
2022-09-27T17:29:40.341Z,21.73
2022-09-27T17:32:09.150Z,19.25
2022-09-27T17:34:43.905Z,21.55
2022-09-27T17:37:13.474Z,22.75
2022-09-27T17:39:42.304Z,24.77
2022-09-27T17:42:12.201Z,20.05
2022-09-27T17:44:42.528Z,20.58
2022-09-27T17:47:28.728Z,18.70
2022-09-27T17:50:14.437Z,29.52
2022-09-27T17:52:43.588Z,24.25
2022-09-27T17:55:12.213Z,19.95
2022-09-27T17:57:40.882Z,24.63
2022-09-27T18:00:12.890Z,30.33
2022-09-27T18:02:42.204Z,29.65
2022-09-27T18:05:11.104Z,23.88
2022-09-27T18:07:39.556Z,21.65
2022-09-27T18:10:09.555Z,18.13
2022-09-27T18:12:39.334Z,21.92
2022-09-27T18:15:09.185Z,18.73
2022-09-27T18:17:39.176Z,24.15
2022-09-27T18:20:08.160Z,26.42
2022-09-27T18:22:39.674Z,23.73
2022-09-27T18:25:09.120Z,21.38
2022-09-27T18:27:38.672Z,23.77
2022-09-27T18:30:09.982Z,23.80
2022-09-27T18:32:40.429Z,22.70
2022-09-27T18:35:09.223Z,25.77
2022-09-27T18:37:38.997Z,28.08
2022-09-27T18:40:08.554Z,27.30
2022-09-27T18:42:37.054Z,29.95
2022-09-27T18:45:06.516Z,22.23
2022-09-27T18:47:35.106Z,22.42
2022-09-27T18:50:05.724Z,28.20
2022-09-27T18:52:36.585Z,27.10
2022-09-27T18:55:06.988Z,23.23
2022-09-27T18:57:37.652Z,24.95
2022-09-27T19:00:08.916Z,23.98
2022-09-27T19:02:37.335Z,27.67
2022-09-27T19:05:09.138Z,23.20
2022-09-27T19:07:40.491Z,23.02
2022-09-27T19:10:10.384Z,24.42
2022-09-27T19:12:40.875Z,24.42
2022-09-27T19:15:11.713Z,22.92
2022-09-27T19:17:40.626Z,29.73
2022-09-27T19:20:12.707Z,26.92
2022-09-27T19:22:41.351Z,27.15
2022-09-27T19:25:11.895Z,30.88
2022-09-27T19:27:43.306Z,31.45
2022-09-27T19:30:13.913Z,28.08
2022-09-27T19:32:42.724Z,21.02
2022-09-27T19:35:14.945Z,22.70
2022-09-27T19:37:43.730Z,21.90
2022-09-27T19:40:12.530Z,20.63
2022-09-27T19:42:41.397Z,27.73
2022-09-27T19:45:12.818Z,23.27
2022-09-27T19:47:41.613Z,21.25
2022-09-27T19:50:11.235Z,27.48
2022-09-27T19:52:41.561Z,20.50
2022-09-27T19:55:11.441Z,28.63
2022-09-27T19:57:40.162Z,23.60
2022-09-27T20:00:10.330Z,26.38
2022-09-27T20:02:51.995Z,20.60
2022-09-27T20:05:22.046Z,20.05
2022-09-27T20:07:54.215Z,27.33
2022-09-27T20:10:22.670Z,18.20
2022-09-27T20:12:52.083Z,14.40
2022-09-27T20:15:21.421Z,17.88
2022-09-27T20:17:51.261Z,16.65
2022-09-27T20:20:20.855Z,22.65
2022-09-27T20:22:52.084Z,22.58
2022-09-27T20:25:20.746Z,16.58
2022-09-27T20:27:50.074Z,21.05
2022-09-27T20:30:19.013Z,18.63
2022-09-27T20:33:07.864Z,26.10
2022-09-27T20:35:37.350Z,18.65
2022-09-27T20:38:07.571Z,14.77
2022-09-27T20:40:36.563Z,23.48
2022-09-27T20:43:05.328Z,18.73
2022-09-27T20:45:35.904Z,19.30
2022-09-27T20:48:04.775Z,21.92
2022-09-27T20:50:34.007Z,23.92
2022-09-27T20:53:03.469Z,18.92
2022-09-27T20:55:36.015Z,20.80
2022-09-27T20:58:04.686Z,15.68
2022-09-27T21:00:37.258Z,23.02
2022-09-27T21:03:08.477Z,15.32
2022-09-27T21:05:37.090Z,16.95
2022-09-27T21:08:06.618Z,15.85
2022-09-27T21:10:36.745Z,20.00
2022-09-27T21:13:05.739Z,15.15
2022-09-27T21:15:34.550Z,15.57
2022-09-27T21:18:02.962Z,20.48
2022-09-27T21:20:32.012Z,23.30
2022-09-27T21:23:02.203Z,18.98
2022-09-27T21:25:30.632Z,12.20
2022-09-27T21:28:01.901Z,19.13
2022-09-27T21:30:30.385Z,20.10
2022-09-27T21:32:59.603Z,18.00
2022-09-27T21:35:28.997Z,18.30
2022-09-27T21:37:58.503Z,15.27
2022-09-27T21:40:28.183Z,15.45
2022-09-27T21:42:57.867Z,17.58
2022-09-27T21:45:34.888Z,20.30
2022-09-27T21:48:03.584Z,21.60
2022-09-27T21:50:32.920Z,15.57
2022-09-27T21:53:01.251Z,17.98
2022-09-27T21:55:31.138Z,18.13
2022-09-27T21:57:59.643Z,19.27
2022-09-27T22:00:28.332Z,18.08
2022-09-27T22:03:00.285Z,16.08
2022-09-27T22:05:29.948Z,17.55
2022-09-27T22:08:13.580Z,14.82
2022-09-27T22:10:42.331Z,17.73
2022-09-27T22:13:11.342Z,17.00
2022-09-27T22:15:41.678Z,17.20
2022-09-27T22:18:13.300Z,18.05
2022-09-27T22:20:43.585Z,20.73
2022-09-27T22:23:12.331Z,20.08
2022-09-27T22:25:41.899Z,15.35
2022-09-27T22:28:10.701Z,16.50
2022-09-27T22:30:40.109Z,18.30
2022-09-27T22:33:08.598Z,20.15
2022-09-27T22:35:47.675Z,19.05
2022-09-27T22:38:17.350Z,21.58
2022-09-27T22:40:54.824Z,26.33
2022-09-27T22:43:27.008Z,21.50
2022-09-27T22:45:55.688Z,23.58
2022-09-27T22:48:25.063Z,24.45
2022-09-27T22:50:58.439Z,22.88
2022-09-27T22:53:28.002Z,20.45
2022-09-27T22:56:04.808Z,17.63
2022-09-27T22:58:36.030Z,16.13
2022-09-27T23:01:09.916Z,19.73
2022-09-27T23:03:38.624Z,20.60
2022-09-27T23:06:09.827Z,15.25
2022-09-27T23:08:39.784Z,16.45
2022-09-27T23:11:10.614Z,28.17
2022-09-27T23:13:41.943Z,12.50
2022-09-27T23:16:12.760Z,22.55
2022-09-27T23:18:42.294Z,20.60
2022-09-27T23:21:15.980Z,21.90
2022-09-27T23:23:46.688Z,20.50
2022-09-27T23:26:17.929Z,16.90
2022-09-27T23:28:46.733Z,14.27
2022-09-27T23:31:18.967Z,24.85
2022-09-27T23:33:49.550Z,23.35
2022-09-27T23:36:22.751Z,23.52
2022-09-27T23:38:51.632Z,22.00
2022-09-27T23:41:21.392Z,21.42
2022-09-27T23:43:51.359Z,21.33
2022-09-27T23:46:26.014Z,16.52
2022-09-27T23:49:01.309Z,16.65
2022-09-27T23:51:31.221Z,23.55
2022-09-27T23:54:01.138Z,26.35
2022-09-27T23:56:29.612Z,18.58
2022-09-27T23:59:01.244Z,26.50
